Time;durP1;ratioP1;P1;durP2;ratioP2;P2;SDS_P1;SDS_P2;PMS_P1;PMS_P2;Temp;Humidity;BMP_temperature;BMP_pressure;BME280_temperature;BME280_humidity;BME280_pressure;Samples;Min_cycle;Max_cycle;Signal;HPM_P1;HPM_P2
2021/12/07 00:01:21;;;;;;;;;;;;;;;;;;4550057;28;25252;-76
2021/12/07 00:03:32;;;;;;;;;;;;;;;;;;4548603;28;19917;-75
2021/12/07 00:05:42;;;;;;;;;;;;;;;;;;4531136;28;19928;-75
2021/12/07 00:07:52;;;;;;;;;;;;;;;;;;4546724;28;19917;-75
2021/12/07 00:10:03;;;;;;;;;;;;;;;;;;4550529;28;20003;-75
2021/12/07 00:12:13;;;;;;;;;;;;;;;;;;4549982;28;19970;-76
2021/12/07 00:14:25;;;;;;;;;;;;;;;;;;4549071;28;19994;-75
2021/12/07 00:16:35;;;;;;;;;;;;;;;;;;4550457;28;19932;-76
2021/12/07 00:18:46;;;;;;;;;;;;;;;;;;4550708;28;20454;-76
2021/12/07 00:20:57;;;;;;;;;;;;;;;;;;4530749;28;19913;-76
2021/12/07 00:23:08;;;;;;;;;;;;;;;;;;4550925;28;20281;-76
2021/12/07 00:25:19;;;;;;;;;;;;;;;;;;4547758;28;19925;-76
2021/12/07 00:27:29;;;;;;;;;;;;;;;;;;4551464;28;19917;-76
2021/12/07 00:29:39;;;;;;;;;;;;;;;;;;4548566;28;19927;-76
2021/12/07 00:31:54;;;;;;;;;;;;;;;;;;4551297;28;20746;-76
2021/12/07 00:34:12;;;;;;;;;;;;;;;;;;4548077;28;19912;-76
2021/12/07 00:36:23;;;;;;;;;;;;;;;;;;4549181;28;19925;-76
2021/12/07 00:38:33;;;;;;;;;;;;;;;;;;4534061;28;20277;-76
2021/12/07 00:40:43;;;;;;;;;;;;;;;;;;4548821;28;19916;-76
2021/12/07 00:42:54;;;;;;;;;;;;;;;;;;4551969;28;20393;-76
2021/12/07 00:45:04;;;;;;;;;;;;;;;;;;4535589;28;19923;-76
2021/12/07 00:47:15;;;;;;;;;;;;;;;;;;4549398;28;19922;-76
2021/12/07 00:49:25;;;;;;;;;;;;;;;;;;4546844;28;19928;-76
2021/12/07 00:51:35;;;;;;;;;;;;;;;;;;4557476;28;19916;-76
2021/12/07 00:53:46;;;;;;;;;;;;;;;;;;4550360;28;19920;-76
2021/12/07 00:55:57;;;;;;;;;;;;;;;;;;4547692;28;19924;-76
2021/12/07 00:58:17;;;;;;;;;;;;;;;;;;4544919;28;20537;-77
2021/12/07 01:00:29;;;;;;;;;;;;;;;;;;4541254;28;19928;-77
2021/12/07 01:02:40;;;;;;;;;;;;;;;;;;4546515;28;19912;-77
2021/12/07 01:04:57;;;;;;;;;;;;;;;;;;4556970;28;19916;-77
2021/12/07 01:07:17;;;;;;;;;;;;;;;;;;4551009;28;20511;-75
2021/12/07 01:26:50;;;;;;;;;;;;;;;;;;4546351;28;19921;-76
2021/12/07 01:29:00;;;;;;;;;;;;;;;;;;4549845;28;19916;-76
2021/12/07 01:31:27;;;;;;;;;;;;;;;;;;4549690;28;19920;-76
2021/12/07 01:40:45;;;;;;;;;;;;;;;;;;4564315;28;19912;-77
2021/12/07 01:45:53;;;;;;;;;;;;;;;;;;4539764;28;20022;-76
2021/12/07 01:49:53;;;;;;;;;;;;;;;;;;4540194;28;19916;-76
2021/12/07 01:51:01;;;;;;;;;;;;;;;;;;4549463;28;19916;-76
2021/12/07 01:57:47;;;;;;;;;;;;;;;;;;4556571;28;20530;-76
2021/12/07 02:00:41;;;;;;;;;;;;;;;;;;4549432;28;20966;-76
2021/12/07 02:02:51;;;;;;;;;;;;;;;;;;4550349;28;19974;-77
2021/12/07 02:05:02;;;;;;;;;;;;;;;;;;4548763;28;20526;-76
2021/12/07 02:07:13;;;;;;;;;;;;;;;;;;4556183;28;19916;-76
2021/12/07 02:09:27;;;;;;;;;;;;;;;;;;4534845;28;19913;-76
2021/12/07 02:11:45;;;;;;;;;;;;;;;;;;4549268;28;19970;-76
2021/12/07 02:16:07;;;;;;;;;;;;;;;;;;4549881;28;19967;-76
2021/12/07 02:18:17;;;;;;;;;;;;;;;;;;4550715;28;20625;-76
2021/12/07 02:20:28;;;;;;;;;;;;;;;;;;4551778;28;19981;-76
2021/12/07 02:22:39;;;;;;;;;;;;;;;;;;4559767;28;19920;-76
2021/12/07 02:24:50;;;;;;;;;;;;;;;;;;4535075;28;19923;-76
2021/12/07 02:27:00;;;;;;;;;;;;;;;;;;4553127;28;19919;-76
2021/12/07 02:29:10;;;;;;;;;;;;;;;;;;4551142;28;20025;-76
2021/12/07 02:31:21;;;;;;;;;;;;;;;;;;4557678;28;19916;-76
2021/12/07 02:33:32;;;;;;;;;;;;;;;;;;4552370;28;19912;-76
2021/12/07 02:35:42;;;;;;;;;;;;;;;;;;4549499;28;20368;-76
2021/12/07 02:37:53;;;;;;;;;;;;;;;;;;4550874;28;19921;-76
2021/12/07 02:40:06;;;;;;;;;;;;;;;;;;4548346;28;20416;-76
2021/12/07 02:42:17;;;;;;;;;;;;;;;;;;4550282;28;19951;-76
2021/12/07 02:44:27;;;;;;;;;;;;;;;;;;4535628;28;20559;-77
2021/12/07 02:46:38;;;;;;;;;;;;;;;;;;4549422;28;20301;-76
2021/12/07 02:48:49;;;;;;;;;;;;;;;;;;4540402;28;19916;-75
2021/12/07 02:51:00;;;;;;;;;;;;;;;;;;4552528;28;19923;-75
2021/12/07 02:53:12;;;;;;;;;;;;;;;;;;4536460;28;20019;-75
2021/12/07 02:55:22;;;;;;;;;;;;;;;;;;4549424;28;19924;-75
2021/12/07 02:57:34;;;;;;;;;;;;;;;;;;4552397;28;19920;-75
2021/12/07 02:59:49;;;;;;;;;;;;;;;;;;4554228;28;19923;-76
2021/12/07 03:02:05;;;;;;;;;;;;;;;;;;4544308;28;19939;-75
2021/12/07 03:04:22;;;;;;;;;;;;;;;;;;4549658;28;20021;-76
2021/12/07 03:26:13;;;;;;;;;;;;;;;;;;4549805;28;19928;-75
2021/12/07 03:28:26;;;;;;;;;;;;;;;;;;4550819;28;19978;-76
2021/12/07 03:30:37;;;;;;;;;;;;;;;;;;4552576;28;19995;-76
2021/12/07 03:32:47;;;;;;;;;;;;;;;;;;4550490;28;20379;-76
2021/12/07 03:34:57;;;;;;;;;;;;;;;;;;4549516;28;19916;-76
2021/12/07 03:37:07;;;;;;;;;;;;;;;;;;4551400;28;19924;-75
2021/12/07 03:39:18;;;;;;;;;;;;;;;;;;4551288;28;20355;-76
2021/12/07 03:41:28;;;;;;;;;;;;;;;;;;4539182;28;19917;-76
2021/12/07 03:43:39;;;;;;;;;;;;;;;;;;4558189;28;19996;-76
2021/12/07 03:45:50;;;;;;;;;;;;;;;;;;4551466;28;19916;-76
2021/12/07 03:48:01;;;;;;;;;;;;;;;;;;4552119;28;20017;-76
2021/12/07 03:50:12;;;;;;;;;;;;;;;;;;4551406;28;19959;-76
2021/12/07 03:52:22;;;;;;;;;;;;;;;;;;4551101;28;19920;-76
2021/12/07 03:54:33;;;;;;;;;;;;;;;;;;4534695;28;19924;-76
2021/12/07 03:56:43;;;;;;;;;;;;;;;;;;4550982;28;20487;-76
2021/12/07 03:58:54;;;;;;;;;;;;;;;;;;4551613;28;19925;-75
2021/12/07 04:01:06;;;;;;;;;;;;;;;;;;4551135;28;19920;-75
2021/12/07 04:03:18;;;;;;;;;;;;;;;;;;4541660;28;19916;-76
2021/12/07 04:05:28;;;;;;;;;;;;;;;;;;4542446;28;20039;-76
2021/12/07 04:07:40;;;;;;;;;;;;;;;;;;4550192;28;19916;-76
2021/12/07 04:09:52;;;;;;;;;;;;;;;;;;4551876;28;19942;-76
2021/12/07 04:12:02;;;;;;;;;;;;;;;;;;4549604;28;20390;-76
2021/12/07 04:14:12;;;;;;;;;;;;;;;;;;4550981;28;19916;-76
2021/12/07 04:16:23;;;;;;;;;;;;;;;;;;4550896;28;20384;-76
2021/12/07 04:18:38;;;;;;;;;;;;;;;;;;4549498;28;20479;-76
2021/12/07 04:20:48;;;;;;;;;;;;;;;;;;4551866;28;19916;-76
2021/12/07 04:22:58;;;;;;;;;;;;;;;;;;4550834;28;19916;-76
2021/12/07 04:25:10;;;;;;;;;;;;;;;;;;4548747;28;19942;-76
2021/12/07 04:27:20;;;;;;;;;;;;;;;;;;4549716;28;19923;-76
2021/12/07 04:29:30;;;;;;;;;;;;;;;;;;4549841;28;19927;-76
2021/12/07 04:31:41;;;;;;;;;;;;;;;;;;4549529;28;19923;-76
2021/12/07 04:33:51;;;;;;;;;;;;;;;;;;4549426;28;19920;-76
2021/12/07 04:36:03;;;;;;;;;;;;;;;;;;4548045;28;19926;-76
2021/12/07 04:38:13;;;;;;;;;;;;;;;;;;4549314;28;20940;-75
2021/12/07 04:40:25;;;;;;;;;;;;;;;;;;4548522;28;19916;-75
2021/12/07 04:42:35;;;;;;;;;;;;;;;;;;4532913;28;20511;-76
2021/12/07 04:44:52;;;;;;;;;;;;;;;;;;4548051;28;19947;-76
2021/12/07 04:47:15;;;;;;;;;;;;;;;;;;4550161;28;20406;-76
2021/12/07 04:59:02;;;;;;;;;;;;;;;;;;4547928;28;19916;-75
2021/12/07 05:01:13;;;;;;;;;;;;;;;;;;4550309;28;19916;-75
2021/12/07 05:03:25;;;;;;;;;;;;;;;;;;4549163;28;19916;-75
2021/12/07 05:05:41;;;;;;;;;;;;;;;;;;4548495;28;19916;-75
2021/12/07 05:07:54;;;;;;;;;;;;;;;;;;4548483;28;19994;-75
2021/12/07 05:14:32;;;;;;;;;;;;;;;;;;4547206;28;19923;-75
2021/12/07 05:19:16;;;;;;;;;;;;;;;;;;4548489;28;20439;-75
2021/12/07 05:24:04;;;;;;;;;;;;;;;;;;4548591;28;19923;-75
2021/12/07 05:38:44;;;;;;;;;;;;;;;;;;4549936;28;19920;-75
2021/12/07 05:40:54;;;;;;;;;;;;;;;;;;4548424;28;19917;-75
2021/12/07 05:43:05;;;;;;;;;;;;;;;;;;4556913;28;19970;-75
2021/12/07 05:45:17;;;;;;;;;;;;;;;;;;4549095;28;20344;-76
2021/12/07 05:47:27;;;;;;;;;;;;;;;;;;4549185;28;19917;-75
2021/12/07 05:49:37;;;;;;;;;;;;;;;;;;4547111;28;19989;-75
2021/12/07 05:51:48;;;;;;;;;;;;;;;;;;4548367;28;19917;-75
2021/12/07 05:53:58;;;;;;;;;;;;;;;;;;4548539;28;20021;-75
2021/12/07 05:56:08;;;;;;;;;;;;;;;;;;4546552;28;19916;-75
2021/12/07 05:58:19;;;;;;;;;;;;;;;;;;4548905;28;20010;-76
2021/12/07 06:00:30;;;;;;;;;;;;;;;;;;4548982;28;19923;-76
2021/12/07 06:02:41;;;;;;;;;;;;;;;;;;4548196;28;20504;-76
2021/12/07 06:04:51;;;;;;;;;;;;;;;;;;4547401;28;19923;-76
2021/12/07 06:07:01;;;;;;;;;;;;;;;;;;4548849;28;19943;-76
2021/12/07 06:09:12;;;;;;;;;;;;;;;;;;4548293;28;19927;-75
2021/12/07 06:11:24;;;;;;;;;;;;;;;;;;4549029;28;19966;-76
2021/12/07 06:13:34;;;;;;;;;;;;;;;;;;4547665;28;19917;-76
2021/12/07 06:15:45;;;;;;;;;;;;;;;;;;4548591;28;20369;-76
2021/12/07 06:17:56;;;;;;;;;;;;;;;;;;4549252;28;20022;-76
2021/12/07 06:20:06;;;;;;;;;;;;;;;;;;4549389;28;20380;-76
2021/12/07 06:22:17;;;;;;;;;;;;;;;;;;4546919;28;20380;-76
2021/12/07 06:24:27;;;;;;;;;;;;;;;;;;4547820;28;19924;-76
2021/12/07 06:26:37;;;;;;;;;;;;;;;;;;4547622;28;19928;-76
2021/12/07 06:28:48;;;;;;;;;;;;;;;;;;4547645;28;19916;-76
2021/12/07 06:30:58;;;;;;;;;;;;;;;;;;4548041;28;19912;-76
2021/12/07 06:33:08;;;;;;;;;;;;;;;;;;4545914;28;19928;-76
2021/12/07 06:35:19;;;;;;;;;;;;;;;;;;4547233;28;19935;-76
2021/12/07 06:37:29;;;;;;;;;;;;;;;;;;4546628;28;19924;-76
2021/12/07 06:39:39;;;;;;;;;;;;;;;;;;4548872;28;20311;-76
2021/12/07 06:41:50;;;;;;;;;;;;;;;;;;4550336;28;19954;-76
2021/12/07 06:44:00;;;;;;;;;;;;;;;;;;4548913;28;19920;-76
2021/12/07 06:46:10;;;;;;;;;;;;;;;;;;4547483;28;20361;-76
2021/12/07 06:48:21;;;;;;;;;;;;;;;;;;4547691;28;19970;-76
2021/12/07 06:50:31;;;;;;;;;;;;;;;;;;4547132;28;19971;-76
2021/12/07 06:52:41;;;;;;;;;;;;;;;;;;4547730;28;19912;-77
2021/12/07 06:54:52;;;;;;;;;;;;;;;;;;4549454;28;20700;-77
2021/12/07 06:57:03;;;;;;;;;;;;;;;;;;4550449;28;20019;-77
2021/12/07 06:59:13;;;;;;;;;;;;;;;;;;4548876;28;19963;-76
2021/12/07 07:01:23;;;;;;;;;;;;;;;;;;4552039;28;19927;-76
2021/12/07 07:03:34;;;;;;;;;;;;;;;;;;4550384;28;20893;-76
2021/12/07 07:05:44;;;;;;;;;;;;;;;;;;4552631;28;19916;-77
2021/12/07 07:07:54;;;;;;;;;;;;;;;;;;4549312;28;19916;-76
2021/12/07 07:10:05;;;;;;;;;;;;;;;;;;4551547;28;19971;-77
2021/12/07 07:12:16;;;;;;;;;;;;;;;;;;4549524;28;20281;-76
2021/12/07 07:14:46;;;;;;;;;;;;;;;;;;4551662;28;19982;-77
2021/12/07 07:16:56;;;;;;;;;;;;;;;;;;4549914;28;20484;-77
2021/12/07 07:19:07;;;;;;;;;;;;;;;;;;4549790;28;19916;-77
2021/12/07 07:21:17;;;;;;;;;;;;;;;;;;4550098;28;19947;-76
2021/12/07 07:23:28;;;;;;;;;;;;;;;;;;4551179;28;20455;-77
2021/12/07 07:25:38;;;;;;;;;;;;;;;;;;4547898;28;19963;-77
2021/12/07 07:27:48;;;;;;;;;;;;;;;;;;4547732;28;23354;-77
2021/12/07 07:29:59;;;;;;;;;;;;;;;;;;4549382;28;19916;-76
2021/12/07 07:32:10;;;;;;;;;;;;;;;;;;4551274;28;19921;-76
2021/12/07 07:34:21;;;;;;;;;;;;;;;;;;4552170;28;19916;-76
2021/12/07 07:36:31;;;;;;;;;;;;;;;;;;4546764;28;20384;-77
2021/12/07 07:38:41;;;;;;;;;;;;;;;;;;4552403;28;19917;-77
2021/12/07 07:40:52;;;;;;;;;;;;;;;;;;4549956;28;20140;-77
2021/12/07 07:43:06;;;;;;;;;;;;;;;;;;4548442;28;19923;-77
2021/12/07 07:45:22;;;;;;;;;;;;;;;;;;4518207;28;19917;-77
2021/12/07 07:47:32;;;;;;;;;;;;;;;;;;4550122;28;19940;-77
2021/12/07 07:49:43;;;;;;;;;;;;;;;;;;4549455;28;19931;-76
2021/12/07 07:51:53;;;;;;;;;;;;;;;;;;4549554;28;19927;-76
2021/12/07 07:54:04;;;;;;;;;;;;;;;;;;4550411;28;19989;-77
2021/12/07 07:56:14;;;;;;;;;;;;;;;;;;4548146;28;19917;-77
2021/12/07 07:58:24;;;;;;;;;;;;;;;;;;4564649;28;20011;-76
2021/12/07 08:00:35;;;;;;;;;;;;;;;;;;4551075;28;20003;-77
2021/12/07 08:02:46;;;;;;;;;;;;;;;;;;4548767;28;19924;-77
2021/12/07 08:04:56;;;;;;;;;;;;;;;;;;4551281;28;20393;-77
2021/12/07 08:07:06;;;;;;;;;;;;;;;;;;4548377;28;20007;-76
2021/12/07 08:09:16;;;;;;;;;;;;;;;;;;4549194;28;19912;-76
2021/12/07 08:11:27;;;;;;;;;;;;;;;;;;4548035;28;19916;-77
2021/12/07 08:13:37;;;;;;;;;;;;;;;;;;4549988;28;19990;-76
2021/12/07 08:15:49;;;;;;;;;;;;;;;;;;4549702;28;19927;-77
2021/12/07 08:17:59;;;;;;;;;;;;;;;;;;4565505;28;19916;-76
2021/12/07 08:20:14;;;;;;;;;;;;;;;;;;4551522;28;19943;-76
2021/12/07 08:22:24;;;;;;;;;;;;;;;;;;4533460;28;19924;-76
2021/12/07 08:24:34;;;;;;;;;;;;;;;;;;4549161;28;19920;-76
2021/12/07 08:26:45;;;;;;;;;;;;;;;;;;4547690;28;19920;-76
2021/12/07 08:28:57;;;;;;;;;;;;;;;;;;4549999;28;19920;-76
2021/12/07 08:31:08;;;;;;;;;;;;;;;;;;4547308;28;19924;-76
2021/12/07 08:33:19;;;;;;;;;;;;;;;;;;4550350;28;19916;-77
2021/12/07 08:35:29;;;;;;;;;;;;;;;;;;4548175;28;19916;-76
2021/12/07 08:37:39;;;;;;;;;;;;;;;;;;4549200;28;19924;-76
2021/12/07 08:39:50;;;;;;;;;;;;;;;;;;4547882;28;20421;-76
2021/12/07 08:42:01;;;;;;;;;;;;;;;;;;4532026;28;20714;-76
2021/12/07 08:44:11;;;;;;;;;;;;;;;;;;4547041;28;19920;-77
2021/12/07 08:46:22;;;;;;;;;;;;;;;;;;4548885;28;19924;-77
2021/12/07 08:48:34;;;;;;;;;;;;;;;;;;4551005;28;19927;-77
2021/12/07 08:50:44;;;;;;;;;;;;;;;;;;4549487;28;19920;-77
2021/12/07 08:52:57;;;;;;;;;;;;;;;;;;4551722;28;19916;-77
2021/12/07 08:59:56;;;;;;;;;;;;;;;;;;4547508;28;19916;-74
2021/12/07 09:02:07;;;;;;;;;;;;;;;;;;4549693;28;19967;-74
2021/12/07 09:04:18;;;;;;;;;;;;;;;;;;4547546;28;20597;-75
2021/12/07 09:06:29;;;;;;;;;;;;;;;;;;4547492;28;20780;-74
2021/12/07 09:08:42;;;;;;;;;;;;;;;;;;4546405;28;19994;-74
2021/12/07 09:10:53;;;;;;;;;;;;;;;;;;4549160;28;19916;-74
2021/12/07 09:13:03;;;;;;;;;;;;;;;;;;4547855;28;19951;-75
2021/12/07 09:15:14;;;;;;;;;;;;;;;;;;4547909;28;19978;-74
2021/12/07 09:17:24;;;;;;;;;;;;;;;;;;4547939;28;19916;-73
2021/12/07 09:19:34;;;;;;;;;;;;;;;;;;4548444;28;19971;-73
2021/12/07 09:21:45;;;;;;;;;;;;;;;;;;4548339;28;20011;-75
2021/12/07 09:23:55;;;;;;;;;;;;;;;;;;4549172;28;20342;-75
2021/12/07 09:26:05;;;;;;;;;;;;;;;;;;4547724;28;19921;-75
2021/12/07 09:28:16;;;;;;;;;;;;;;;;;;4546290;28;19917;-75
2021/12/07 09:30:26;;;;;;;;;;;;;;;;;;4548198;28;19956;-75
2021/12/07 09:32:37;;;;;;;;;;;;;;;;;;4548224;28;20227;-74
2021/12/07 09:34:47;;;;;;;;;;;;;;;;;;4546642;28;19917;-74
2021/12/07 09:36:57;;;;;;;;;;;;;;;;;;4548234;28;19991;-75
2021/12/07 09:39:09;;;;;;;;;;;;;;;;;;4547941;28;19917;-73
2021/12/07 09:41:20;;;;;;;;;;;;;;;;;;4556561;28;20447;-74
2021/12/07 09:43:30;;;;;;;;;;;;;;;;;;4547723;28;19921;-75
2021/12/07 09:45:42;;;;;;;;;;;;;;;;;;4549992;28;19912;-75
2021/12/07 09:47:53;;;;;;;;;;;;;;;;;;4528909;28;19916;-75
2021/12/07 09:50:04;;;;;;;;;;;;;;;;;;4547192;28;21221;-75
2021/12/07 09:52:15;;;;;;;;;;;;;;;;;;4546396;28;19963;-74
2021/12/07 09:54:25;;;;;;;;;;;;;;;;;;4548290;28;19928;-73
2021/12/07 09:56:36;;;;;;;;;;;;;;;;;;4546116;28;19924;-74
2021/12/07 09:58:48;;;;;;;;;;;;;;;;;;4548196;28;19920;-74
2021/12/07 10:00:58;;;;;;;;;;;;;;;;;;4548810;28;19923;-74
2021/12/07 10:03:08;;;;;;;;;;;;;;;;;;4545819;28;19923;-74
2021/12/07 10:05:19;;;;;;;;;;;;;;;;;;4547269;28;20363;-74
2021/12/07 10:07:30;;;;;;;;;;;;;;;;;;4549176;28;19928;-74
2021/12/07 10:09:40;;;;;;;;;;;;;;;;;;4545986;28;20674;-74
2021/12/07 10:11:52;;;;;;;;;;;;;;;;;;4547245;28;19923;-74
2021/12/07 10:14:02;;;;;;;;;;;;;;;;;;4546467;28;19916;-74
2021/12/07 10:16:13;;;;;;;;;;;;;;;;;;4547471;28;20380;-69
2021/12/07 10:18:25;;;;;;;;;;;;;;;;;;4545631;28;20550;-68
2021/12/07 10:20:42;;;;;;;;;;;;;;;;;;4548373;28;19916;-71
2021/12/07 10:22:52;;;;;;;;;;;;;;;;;;4546534;28;19913;-71
2021/12/07 10:25:04;;;;;;;;;;;;;;;;;;4545701;28;19956;-73
2021/12/07 10:27:30;;;;;;;;;;;;;;;;;;4532131;28;19924;-69
2021/12/07 10:29:40;;;;;;;;;;;;;;;;;;4531320;28;19967;-69
2021/12/07 10:31:52;;;;;;;;;;;;;;;;;;4551413;28;19935;-70
2021/12/07 10:34:06;;;;;;;;;;;;;;;;;;4548636;28;19970;-69
2021/12/07 10:36:19;;;;;;;;;;;;;;;;;;4549051;28;20879;-73
2021/12/07 10:38:29;;;;;;;;;;;;;;;;;;4551702;28;19912;-68
2021/12/07 10:40:56;;;;;;;;;;;;;;;;;;4548910;28;19916;-69
2021/12/07 10:43:06;;;;;;;;;;;;;;;;;;4558710;28;20727;-70
2021/12/07 10:45:16;;;;;;;;;;;;;;;;;;4548983;28;19958;-72
2021/12/07 10:47:28;;;;;;;;;;;;;;;;;;4549655;28;19916;-69
2021/12/07 10:49:46;;;;;;;;;;;;;;;;;;4531647;28;20423;-70
2021/12/07 10:52:07;;;;;;;;;;;;;;;;;;4547775;28;19939;-71
2021/12/07 10:54:17;;;;;;;;;;;;;;;;;;4534349;28;19924;-67
2021/12/07 10:56:28;;;;;;;;;;;;;;;;;;4548154;28;19931;-69
2021/12/07 10:58:38;;;;;;;;;;;;;;;;;;4548051;28;19963;-73
2021/12/07 11:00:50;;;;;;;;;;;;;;;;;;4551658;28;19964;-69
2021/12/07 11:03:02;;;;;;;;;;;;;;;;;;4548375;28;19916;-70
2021/12/07 11:05:32;;;;;;;;;;;;;;;;;;4549239;28;20495;-70
2021/12/07 11:07:43;;;;;;;;;;;;;;;;;;4551728;28;19982;-73
2021/12/07 11:10:16;;;;;;;;;;;;;;;;;;4550616;28;19966;-71
2021/12/07 11:12:30;;;;;;;;;;;;;;;;;;4565934;28;19916;-70
2021/12/07 11:14:52;;;;;;;;;;;;;;;;;;4550508;28;19927;-73
2021/12/07 11:17:02;;;;;;;;;;;;;;;;;;4547927;28;19920;-68
2021/12/07 11:19:19;;;;;;;;;;;;;;;;;;4549714;28;19916;-72
2021/12/07 11:21:30;;;;;;;;;;;;;;;;;;4548678;28;20531;-67
2021/12/07 11:23:42;;;;;;;;;;;;;;;;;;4549486;28;19920;-68
2021/12/07 11:29:39;;;;;;;;;;;;;;;;;;4548813;28;19920;-72
2021/12/07 11:31:17;;;;;;;;;;;;;;;;;;4490484;28;21271;-73
2021/12/07 11:33:27;;;;;;;;;;;;;;;;;;4487934;28;20453;-72
2021/12/07 11:35:38;;;;;;;;;;;;;;;;;;4499729;28;20384;-72
2021/12/07 11:37:48;;;;;;;;;;;;;;;;;;4548499;28;19920;-69
2021/12/07 11:40:00;;;;;;;;;;;;;;;;;;4548256;28;20300;-71
2021/12/07 11:42:12;;;;;;;;;;;;;;;;;;4545812;28;20128;-71
2021/12/07 11:44:22;;;;;;;;;;;;;;;;;;4547469;28;20031;-69
2021/12/07 11:46:34;;;;;;;;;;;;;;;;;;4546224;28;19923;-69
2021/12/07 11:48:45;;;;;;;;;;;;;;;;;;4547815;28;20419;-69
2021/12/07 11:50:55;;;;;;;;;;;;;;;;;;4548034;28;19924;-69
2021/12/07 11:53:10;;;;;;;;;;;;;;;;;;4551196;28;19952;-69
2021/12/07 11:55:21;;;;;;;;;;;;;;;;;;4548385;28;20504;-70
2021/12/07 11:57:31;;;;;;;;;;;;;;;;;;4549186;28;19925;-70
2021/12/07 11:59:42;;;;;;;;;;;;;;;;;;4550578;28;19982;-70
2021/12/07 12:01:53;;;;;;;;;;;;;;;;;;4547090;28;20455;-70
2021/12/07 12:04:04;;;;;;;;;;;;;;;;;;4547327;28;20007;-70
2021/12/07 12:06:17;;;;;;;;;;;;;;;;;;4530867;28;19920;-69
2021/12/07 12:08:27;;;;;;;;;;;;;;;;;;4549961;28;19916;-70
2021/12/07 12:10:39;;;;;;;;;;;;;;;;;;4550593;28;19920;-69
2021/12/07 12:12:57;;;;;;;;;;;;;;;;;;4546764;28;20030;-69
2021/12/07 12:15:11;;;;;;;;;;;;;;;;;;4549493;28;20428;-69
2021/12/07 12:17:26;;;;;;;;;;;;;;;;;;4548284;28;20035;-69
2021/12/07 12:19:39;;;;;;;;;;;;;;;;;;4547327;28;19912;-69
2021/12/07 12:21:51;;;;;;;;;;;;;;;;;;4548490;28;19925;-69
2021/12/07 12:24:14;;;;;;;;;;;;;;;;;;4547432;28;19924;-69
2021/12/07 12:26:25;;;;;;;;;;;;;;;;;;4549733;28;19916;-69
2021/12/07 12:28:37;;;;;;;;;;;;;;;;;;4548409;28;19970;-69
2021/12/07 12:30:47;;;;;;;;;;;;;;;;;;4545389;28;19921;-70
2021/12/07 12:32:59;;;;;;;;;;;;;;;;;;4549287;28;19932;-69
2021/12/07 12:35:10;;;;;;;;;;;;;;;;;;4549108;28;19916;-69
2021/12/07 12:37:31;;;;;;;;;;;;;;;;;;4548689;28;19916;-69
2021/12/07 12:39:47;;;;;;;;;;;;;;;;;;4546574;28;19920;-69
2021/12/07 12:42:00;;;;;;;;;;;;;;;;;;4547691;28;20490;-69
2021/12/07 12:44:14;;;;;;;;;;;;;;;;;;4548409;28;20479;-69
2021/12/07 12:46:29;;;;;;;;;;;;;;;;;;4533932;28;19927;-69
2021/12/07 12:48:44;;;;;;;;;;;;;;;;;;4548865;28;19923;-69
2021/12/07 12:50:54;;;;;;;;;;;;;;;;;;4549053;28;20590;-69
2021/12/07 12:53:12;;;;;;;;;;;;;;;;;;4547005;28;20765;-69
2021/12/07 12:55:40;;;;;;;;;;;;;;;;;;4546499;28;19963;-69
2021/12/07 12:57:51;;;;;;;;;;;;;;;;;;4546349;28;19935;-69
2021/12/07 13:00:01;;;;;;;;;;;;;;;;;;4547574;28;19924;-69
2021/12/07 13:02:12;;;;;;;;;;;;;;;;;;4548540;28;19929;-70
2021/12/07 13:04:22;;;;;;;;;;;;;;;;;;4547078;28;19916;-69
2021/12/07 13:06:33;;;;;;;;;;;;;;;;;;4549231;28;19916;-69
2021/12/07 13:08:53;;;;;;;;;;;;;;;;;;4547787;28;19924;-69
2021/12/07 13:11:04;;;;;;;;;;;;;;;;;;4547309;28;19923;-70
2021/12/07 13:13:33;;;;;;;;;;;;;;;;;;4548584;28;20317;-69
2021/12/07 13:15:43;;;;;;;;;;;;;;;;;;4547978;28;19928;-69
2021/12/07 13:17:54;;;;;;;;;;;;;;;;;;4547246;28;19966;-69
2021/12/07 13:20:20;;;;;;;;;;;;;;;;;;4545848;28;20335;-69
2021/12/07 13:22:36;;;;;;;;;;;;;;;;;;4547011;28;19921;-69
2021/12/07 13:24:48;;;;;;;;;;;;;;;;;;4549544;28;19923;-68
2021/12/07 13:26:58;;;;;;;;;;;;;;;;;;4547847;28;20582;-69
2021/12/07 13:29:12;;;;;;;;;;;;;;;;;;4531535;28;19921;-70
2021/12/07 13:31:22;;;;;;;;;;;;;;;;;;4562390;28;20561;-69
2021/12/07 13:33:35;;;;;;;;;;;;;;;;;;4547404;28;19962;-69
2021/12/07 13:35:46;;;;;;;;;;;;;;;;;;4544196;28;19916;-69
2021/12/07 13:37:56;;;;;;;;;;;;;;;;;;4546728;28;19920;-69
2021/12/07 13:40:07;;;;;;;;;;;;;;;;;;4543838;28;19917;-69
2021/12/07 13:42:17;;;;;;;;;;;;;;;;;;4546193;28;19917;-69
2021/12/07 13:44:28;;;;;;;;;;;;;;;;;;4546657;28;19963;-69
2021/12/07 13:46:39;;;;;;;;;;;;;;;;;;4546560;28;19916;-69
2021/12/07 13:48:50;;;;;;;;;;;;;;;;;;4546688;28;19917;-69
2021/12/07 13:51:00;;;;;;;;;;;;;;;;;;4546124;28;19916;-69
2021/12/07 13:53:10;;;;;;;;;;;;;;;;;;4546672;28;19917;-69
2021/12/07 13:55:22;;;;;;;;;;;;;;;;;;4548192;28;19916;-69
2021/12/07 13:57:35;;;;;;;;;;;;;;;;;;4547975;28;19924;-69
2021/12/07 13:59:56;;;;;;;;;;;;;;;;;;4545623;28;19939;-69
2021/12/07 14:02:06;;;;;;;;;;;;;;;;;;4548532;28;20218;-69
2021/12/07 14:04:17;;;;;;;;;;;;;;;;;;4551803;28;19927;-69
2021/12/07 14:06:27;;;;;;;;;;;;;;;;;;4547539;28;19940;-69
2021/12/07 14:08:38;;;;;;;;;;;;;;;;;;4556018;28;20313;-69
2021/12/07 14:10:49;;;;;;;;;;;;;;;;;;4548615;28;20467;-69
2021/12/07 14:13:00;;;;;;;;;;;;;;;;;;4548068;28;19923;-69
2021/12/07 14:15:12;;;;;;;;;;;;;;;;;;4547404;28;21057;-69
2021/12/07 14:17:23;;;;;;;;;;;;;;;;;;4544489;28;20020;-69
2021/12/07 14:19:33;;;;;;;;;;;;;;;;;;4532296;28;19916;-69
2021/12/07 14:21:43;;;;;;;;;;;;;;;;;;4547590;28;19916;-69
2021/12/07 14:24:04;;;;;;;;;;;;;;;;;;4547286;28;19999;-69
2021/12/07 14:26:19;;;;;;;;;;;;;;;;;;4546419;28;20011;-69
2021/12/07 14:28:31;;;;;;;;;;;;;;;;;;4546034;28;20510;-69
2021/12/07 14:30:42;;;;;;;;;;;;;;;;;;4537985;28;19916;-69
2021/12/07 14:32:52;;;;;;;;;;;;;;;;;;4547766;28;19916;-69
2021/12/07 14:35:02;;;;;;;;;;;;;;;;;;4547925;28;20007;-69
2021/12/07 14:37:13;;;;;;;;;;;;;;;;;;4545366;28;19921;-69
2021/12/07 14:39:27;;;;;;;;;;;;;;;;;;4546764;28;19928;-69
2021/12/07 14:41:42;;;;;;;;;;;;;;;;;;4545922;28;19916;-69
2021/12/07 14:43:53;;;;;;;;;;;;;;;;;;4545048;28;20678;-69
2021/12/07 14:46:05;;;;;;;;;;;;;;;;;;4544572;28;19921;-69
2021/12/07 14:48:15;;;;;;;;;;;;;;;;;;4545070;28;20520;-69
2021/12/07 14:50:25;;;;;;;;;;;;;;;;;;4544178;28;19926;-69
2021/12/07 14:52:36;;;;;;;;;;;;;;;;;;4547508;28;19921;-69
2021/12/07 14:54:46;;;;;;;;;;;;;;;;;;4543174;28;19971;-70
2021/12/07 14:56:57;;;;;;;;;;;;;;;;;;4546488;28;19921;-70
2021/12/07 14:59:09;;;;;;;;;;;;;;;;;;4545846;28;20741;-70
2021/12/07 15:01:23;;;;;;;;;;;;;;;;;;4547337;28;19923;-70
2021/12/07 15:03:35;;;;;;;;;;;;;;;;;;4545195;28;19929;-70
2021/12/07 15:05:45;;;;;;;;;;;;;;;;;;4549759;28;19970;-70
2021/12/07 15:07:55;;;;;;;;;;;;;;;;;;4544524;28;20481;-70
2021/12/07 15:10:11;;;;;;;;;;;;;;;;;;4545907;28;19931;-70
2021/12/07 15:12:21;;;;;;;;;;;;;;;;;;4545286;28;19924;-70
2021/12/07 15:14:31;;;;;;;;;;;;;;;;;;4547298;28;19928;-70
2021/12/07 15:16:42;;;;;;;;;;;;;;;;;;4544642;28;20527;-70
2021/12/07 15:18:52;;;;;;;;;;;;;;;;;;4549260;28;19944;-70
2021/12/07 15:21:03;;;;;;;;;;;;;;;;;;4549166;28;20026;-70
2021/12/07 15:23:13;;;;;;;;;;;;;;;;;;4551284;28;19917;-69
2021/12/07 15:25:23;;;;;;;;;;;;;;;;;;4548978;28;20443;-67
2021/12/07 15:27:34;;;;;;;;;;;;;;;;;;4549514;28;19950;-68
2021/12/07 15:29:44;;;;;;;;;;;;;;;;;;4548236;28;19916;-68
2021/12/07 15:32:08;;;;;;;;;;;;;;;;;;4549904;28;19956;-69
2021/12/07 15:34:19;;;;;;;;;;;;;;;;;;4548550;28;19921;-70
2021/12/07 15:36:31;;;;;;;;;;;;;;;;;;4546693;28;19916;-70
2021/12/07 15:38:41;;;;;;;;;;;;;;;;;;4547313;28;20455;-70
2021/12/07 15:40:51;;;;;;;;;;;;;;;;;;4551405;28;19943;-69
2021/12/07 15:43:01;;;;;;;;;;;;;;;;;;4548134;28;19913;-70
2021/12/07 15:45:12;;;;;;;;;;;;;;;;;;4548976;28;20270;-70
2021/12/07 15:47:24;;;;;;;;;;;;;;;;;;4515934;28;19921;-69
2021/12/07 15:49:39;;;;;;;;;;;;;;;;;;4564800;28;20031;-70
2021/12/07 15:51:50;;;;;;;;;;;;;;;;;;4548023;28;19916;-70
2021/12/07 15:54:01;;;;;;;;;;;;;;;;;;4548678;28;19916;-69
2021/12/07 15:56:15;;;;;;;;;;;;;;;;;;4549261;28;20611;-70
2021/12/07 15:58:25;;;;;;;;;;;;;;;;;;4548769;28;19928;-70
2021/12/07 16:00:38;;;;;;;;;;;;;;;;;;4549814;28;19920;-70
2021/12/07 16:02:52;;;;;;;;;;;;;;;;;;4549544;28;20435;-69
2021/12/07 16:05:09;;;;;;;;;;;;;;;;;;4541643;28;19917;-70
2021/12/07 16:07:20;;;;;;;;;;;;;;;;;;4550711;28;19965;-70
2021/12/07 16:09:31;;;;;;;;;;;;;;;;;;4548312;28;19921;-70
2021/12/07 16:11:41;;;;;;;;;;;;;;;;;;4548145;28;19917;-70
2021/12/07 16:13:57;;;;;;;;;;;;;;;;;;4549325;28;20304;-70
2021/12/07 16:16:08;;;;;;;;;;;;;;;;;;4548882;28;19990;-69
2021/12/07 16:18:19;;;;;;;;;;;;;;;;;;4548058;28;20499;-69
2021/12/07 16:20:29;;;;;;;;;;;;;;;;;;4540370;28;19912;-70
2021/12/07 16:22:40;;;;;;;;;;;;;;;;;;4550491;28;19924;-70
2021/12/07 16:24:50;;;;;;;;;;;;;;;;;;4549413;28;19990;-70
2021/12/07 16:27:00;;;;;;;;;;;;;;;;;;4547933;28;20700;-69
2021/12/07 16:29:10;;;;;;;;;;;;;;;;;;4547669;28;19990;-70
2021/12/07 16:31:21;;;;;;;;;;;;;;;;;;4549795;28;19924;-70
2021/12/07 16:33:32;;;;;;;;;;;;;;;;;;4550132;28;19924;-70
2021/12/07 16:35:42;;;;;;;;;;;;;;;;;;4547150;28;19923;-70